ADDS TAF Board (Experimental) INFO Settings
IDs: Format: Expanded Condensed

KMSP - Minneapolis-St Paul, MN, US

Issued at 1136 UTC 25 Jun 2016
Updated at: 1403 UTC 25 Jun 2016
Time1353Z 25/15Z 25/16Z 25/17Z 25/18Z 25/19Z 25/20Z 25/21Z 25/22Z 25/23Z 26/00Z 26/01Z 26/02Z 26/03Z
Type OBS PRVL PRVL PRVL PRVL PRVL PRVL PRVL PRVL
  [TEMP]  
PRVL
  [TEMP]  
PRVL PRVL PRVL PRVL
VIS 10 >6 >6 >6 >6 >6 >6 >6 5
  [1.5]  
5
  [1.5]  
5 >6 >6 >6
CIG -- -- -- -- -- 200 200 200 35
  [12]  
35
  [12]  
35 60 60 60
Cover FEW SCT SCT SCT SCT BKN BKN BKN OVC
  [OVC]  
OVC
  [OVC]  
OVC BKN BKN BKN
FltCat VFR VFR VFR VFR VFR VFR VFR VFR MVFR
  [IFR]  
MVFR
  [IFR]  
MVFR VFR VFR VFR
WX -- -- -- -- -- -- -- -- TSRA BR
  [+TSRA BR]  
TSRA BR
  [+TSRA BR]  
TSRA BR -- -- --
WDir 180 170 170 170 170 180 180 180 200
[200]
200
[200]
200 230 230 230
WSpd 9 14 14 14 14 18 18 18 15
  [15]  
15
  [15]  
15 8 8 8
WGst -- 23 23 23 23 30 30 30 25
  [25]  
25
  [25]  
25 -- -- --
R04/22
XWnd -6 -11 -11 -11 -11 -13 -13 -13 -6 -6 -6 1 1 1
XGst -- -19 -19 -19 -19 -21 -21 -21 -11 -11 -11 -- -- --
HWnd -6 -8 -8 -8 -8 -13 -13 -13 -14 -14 -14 -8 -8 -8
HGst -- -13 -13 -13 -13 -21 -21 -21 -23 -23 -23 -- -- --
R12/30
XWnd -8 -11 -11 -11 -11 -15 -15 -15 -15 -15 -15 -8 -8 -8
XGst -- -17 -17 -17 -17 -26 -26 -26 -25 -25 -25 -- -- --
HWnd 5 9 9 9 9 9 9 9 3 3 3 -3 -3 -3
HGst -- 15 15 15 15 15 15 15 5 5 5 -- -- --
R17/35
XWnd -2 0 0 0 0 -3 -3 -3 -8 -8 -8 -7 -7 -7
XGst -- 0 0 0 0 -5 -5 -5 -13 -13 -13 -- -- --
HWnd 9 14 14 14 14 18 18 18 13 13 13 4 4 4
HGst -- 23 23 23 23 30 30 30 22 22 22 -- -- --

NOTE: TEMPO conditions in [brackets]. Keep in mind TEMPO conditions might be better (lower impact) than prevailing conditions.

Raw TAF
KMSP 251136Z 2512/2618 16010KT P6SM SCT045 SCT200
  FM251400 17014G23KT P6SM SCT045 SCT200
  FM251900 18018G30KT P6SM SCT060 BKN200
  FM252200 20015G25KT 5SM TSRA BR OVC035CB
  TEMPO 2522/2524 1 1/2SM +TSRA BR OVC012CB
  FM260100 23008KT P6SM BKN060 BKN200
  FM260600 26007KT P6SM SCT250


Raw METAR
KMSP 251353Z 18009KT 10SM FEW030 27/21 A2983 RMK AO2 SLP095 T02670206
KMSP 251253Z 17012KT 10SM CLR 24/20 A2983 RMK AO2 SLP097 T02440200
KMSP 251153Z 16010KT 10SM FEW028 FEW300 23/19 A2985 RMK AO2 SLP102 T02280194 10244 20222 56003

METAR Board
Radar Display
Forecast Discussion

TAF Board Legend

Potential Impact
Threat None Slight Moderate High
Visibility (sm) ≥5.1 5.1>X≥3 3>X≥1 <1
Ceiling (100 ft) ≥30.1 30.1>X≥10 10>X≥5 <5
Wind Speed (kt) <10 10≤X<20 20≤X<30 ≥30
Wind Gust (kt) <15 15≤X<25 25≤X<35 ≥35
Weather No Wx Reported VCTS,-TS,-FZRA,SN TS,FZRA +TS,+FZRA,+SN